Time;durP1;ratioP1;P1;durP2;ratioP2;P2;SDS_P1;SDS_P2;PMS_P1;PMS_P2;Temp;Humidity;BMP_temperature;BMP_pressure;BME280_temperature;BME280_humidity;BME280_pressure;Samples;Min_cycle;Max_cycle;Signal;HPM_P1;HPM_P2
2021/03/03 00:05:00;;;;;;;11.23;3.30;;;;;;;1.28;100.00;100505.75;3877513;75;396116;-77
2021/03/03 00:10:21;;;;;;;4.13;3.63;;;;;;;1.21;100.00;100511.31;3902363;75;396082;-77
2021/03/03 00:15:42;;;;;;;5.40;2.20;;;;;;;1.10;100.00;100505.31;3877584;75;391936;-77
2021/03/03 00:21:03;;;;;;;2.33;1.90;;;;;;;1.16;100.00;100504.09;3902365;75;396066;-77
2021/03/03 00:26:27;;;;;;;3.30;2.23;;;;;;;0.95;100.00;100505.63;3877382;75;395036;-78
2021/03/03 00:31:47;;;;;;;2.23;2.03;;;;;;;0.83;100.00;100502.61;3876928;75;396138;-77
2021/03/03 00:37:09;;;;;;;2.30;2.03;;;;;;;0.85;100.00;100502.30;3902719;75;396172;-77
2021/03/03 00:42:30;;;;;;;4.83;3.80;;;;;;;0.83;100.00;100491.78;3877263;75;396306;-76
2021/03/03 00:47:51;;;;;;;5.20;1.57;;;;;;;0.75;100.00;100501.17;3902846;74;394009;-77
2021/03/03 00:53:13;;;;;;;12.23;4.30;;;;;;;0.62;100.00;100507.36;3887193;75;393983;-76
2021/03/03 00:58:34;;;;;;;2.30;2.10;;;;;;;0.78;100.00;100516.02;3896797;75;396341;-77
2021/03/03 01:03:56;;;;;;;1.77;1.60;;;;;;;0.76;100.00;100512.80;3896782;75;392938;-77
2021/03/03 01:09:17;;;;;;;2.23;2.03;;;;;;;0.56;100.00;100509.13;3896442;75;395000;-77
2021/03/03 01:14:38;;;;;;;8.83;3.20;;;;;;;0.46;100.00;100503.34;3897114;75;396140;-78
2021/03/03 01:19:59;;;;;;;2.17;2.07;;;;;;;0.52;100.00;100504.05;3896481;75;396078;-78
2021/03/03 01:25:20;;;;;;;4.97;2.70;;;;;;;0.54;100.00;100501.86;3896664;75;396077;-76
2021/03/03 01:30:41;;;;;;;2.60;2.00;;;;;;;0.49;100.00;100506.81;3896807;75;396069;-76
2021/03/03 01:36:02;;;;;;;6.70;2.10;;;;;;;0.17;100.00;100517.67;3896805;75;390142;-76
2021/03/03 01:41:23;;;;;;;2.73;2.53;;;;;;;0.10;100.00;100515.91;3895227;75;396081;-77
2021/03/03 01:46:44;;;;;;;4.17;2.30;;;;;;;0.09;100.00;100523.77;3896322;75;396114;-77
2021/03/03 01:52:07;;;;;;;3.87;1.67;;;;;;;0.03;100.00;100529.55;3905145;74;396087;-76
2021/03/03 01:57:29;;;;;;;1.40;1.30;;;;;;;0.10;100.00;100531.31;3948936;74;396346;-77
2021/03/03 02:02:50;;;;;;;6.80;2.50;;;;;;;0.01;100.00;100533.91;3948616;74;396142;-76
2021/03/03 02:08:23;;;;;;;2.07;1.83;;;;;;;-0.15;100.00;100531.72;3949181;74;390458;-77
2021/03/03 02:13:50;;;;;;;5.50;1.67;;;;;;;-0.09;100.00;100525.16;3947990;74;383584;-77
2021/03/03 02:19:14;;;;;;;6.80;2.53;;;;;;;-0.19;100.00;100507.73;3949157;74;396084;-77
2021/03/03 02:24:41;;;;;;;7.50;2.20;;;;;;;-0.20;100.00;100502.06;3949529;74;398168;-77
2021/03/03 02:30:05;;;;;;;2.40;1.63;;;;;;;-0.21;100.00;100501.02;3947182;74;396289;-77
2021/03/03 02:35:28;;;;;;;3.00;2.57;;;;;;;-0.23;100.00;100499.14;3949579;74;383580;-77
2021/03/03 02:40:50;;;;;;;2.63;2.43;;;;;;;-0.20;100.00;100491.81;3948845;74;396112;-76
2021/03/03 02:46:12;;;;;;;2.73;1.97;;;;;;;-0.32;100.00;100484.69;3949250;74;394238;-76
2021/03/03 02:51:33;;;;;;;1.57;1.20;;;;;;;-0.36;100.00;100479.06;3949854;74;383880;-76
2021/03/03 02:56:56;;;;;;;2.50;1.97;;;;;;;-0.34;100.00;100473.36;3949078;74;396141;-77
2021/03/03 03:02:21;;;;;;;9.10;3.00;;;;;;;-0.24;100.00;100479.41;3949713;74;386986;-76
2021/03/03 03:07:45;;;;;;;1.40;1.00;;;;;;;-0.04;100.00;100484.49;3948993;74;392101;-77
2021/03/03 03:13:09;;;;;;;1.20;1.07;;;;;;;-0.21;100.00;100488.85;3949452;74;396084;-76
2021/03/03 03:18:34;;;;;;;2.03;1.50;;;;;;;-0.24;100.00;100486.72;3948877;74;396132;-76
2021/03/03 03:23:56;;;;;;;2.10;2.00;;;;;;;-0.29;100.00;100493.02;3948842;74;396069;-76
2021/03/03 03:29:19;;;;;;;1.73;1.47;;;;;;;-0.38;100.00;100483.95;3948722;74;396116;-76
2021/03/03 03:34:41;;;;;;;1.20;0.93;;;;;;;-0.52;100.00;100484.98;3949160;74;393047;-77
2021/03/03 03:40:03;;;;;;;3.23;2.77;;;;;;;-0.64;100.00;100486.77;3949020;74;396084;-76
2021/03/03 03:45:25;;;;;;;10.53;2.03;;;;;;;-0.48;100.00;100478.70;3949497;74;400460;-76
2021/03/03 03:50:47;;;;;;;2.63;2.43;;;;;;;-0.54;100.00;100479.09;3949684;74;389870;-76
2021/03/03 03:56:09;;;;;;;4.17;1.03;;;;;;;-0.54;100.00;100474.47;3913746;74;388973;-77
2021/03/03 04:01:30;;;;;;;11.23;2.80;;;;;;;-0.65;100.00;100477.06;3903376;75;389909;-77
2021/03/03 04:06:51;;;;;;;2.30;1.73;;;;;;;-0.73;100.00;100475.02;3903236;75;396093;-77
2021/03/03 04:12:12;;;;;;;4.10;2.57;;;;;;;-0.66;100.00;100475.48;3902064;75;394284;-76
2021/03/03 04:17:33;;;;;;;3.53;1.67;;;;;;;-0.71;100.00;100469.34;3903215;75;396082;-76
2021/03/03 04:22:55;;;;;;;6.43;2.30;;;;;;;-0.65;100.00;100481.11;3903093;75;394042;-76
2021/03/03 04:28:16;;;;;;;7.13;4.93;;;;;;;-0.68;100.00;100483.06;3903062;75;396122;-76
2021/03/03 04:33:38;;;;;;;1.47;0.83;;;;;;;-0.64;100.00;100474.61;3902558;75;391908;-76
2021/03/03 04:38:58;;;;;;;2.40;1.47;;;;;;;-0.90;100.00;100462.33;3901932;75;396041;-76
2021/03/03 04:44:19;;;;;;;1.67;1.17;;;;;;;-1.01;100.00;100462.20;3903977;75;383818;-76
2021/03/03 04:49:41;;;;;;;4.33;1.67;;;;;;;-0.83;100.00;100466.25;3903559;75;391909;-76
2021/03/03 04:55:03;;;;;;;5.97;3.50;;;;;;;-0.77;100.00;100469.95;3892422;75;395025;-76
2021/03/03 05:00:23;;;;;;;3.10;1.67;;;;;;;-0.81;100.00;100466.22;3902933;74;392930;-76
2021/03/03 05:05:45;;;;;;;3.13;2.20;;;;;;;-0.89;100.00;100467.98;3877293;75;396163;-76
2021/03/03 05:11:06;;;;;;;4.57;2.27;;;;;;;-0.87;100.00;100473.34;3902783;75;391907;-78
2021/03/03 05:16:27;;;;;;;9.27;1.90;;;;;;;-0.93;100.00;100468.30;3878386;75;383791;-78
2021/03/03 05:21:48;;;;;;;3.37;1.50;;;;;;;-0.93;100.00;100440.76;3902381;75;396387;-77
2021/03/03 05:27:10;;;;;;;4.50;1.10;;;;;;;-1.06;100.00;100445.52;3877928;74;396078;-77
2021/03/03 05:32:31;;;;;;;1.83;0.77;;;;;;;-1.11;100.00;100459.62;3903004;75;391912;-77
2021/03/03 05:37:52;;;;;;;4.37;2.90;;;;;;;-1.10;100.00;100458.00;3877171;75;396113;-77
2021/03/03 05:43:15;;;;;;;4.27;3.87;;;;;;;-1.04;100.00;100460.06;3902376;74;396439;-77
2021/03/03 05:48:48;;;;;;;5.03;0.87;;;;;;;-0.95;100.00;100452.92;3877610;75;394215;-77
2021/03/03 05:54:10;;;;;;;0.90;0.60;;;;;;;-1.01;100.00;100449.48;3877172;74;383570;-77
2021/03/03 05:59:31;;;;;;;2.90;1.67;;;;;;;-0.95;100.00;100451.05;3902494;75;396034;-77
2021/03/03 06:04:54;;;;;;;2.40;2.20;;;;;;;-0.94;100.00;100443.73;3877145;75;396327;-78
2021/03/03 06:10:16;;;;;;;3.97;1.60;;;;;;;-0.94;100.00;100435.62;3902458;74;393288;-77
2021/03/03 06:15:38;;;;;;;1.23;1.10;;;;;;;-0.83;100.00;100434.41;3878160;75;383578;-78
2021/03/03 06:21:00;;;;;;;7.37;2.37;;;;;;;-0.81;100.00;100436.27;3902462;75;396084;-80
2021/03/03 06:26:21;;;;;;;2.80;2.43;;;;;;;-0.72;100.00;100444.77;3877225;75;396027;-77
2021/03/03 06:31:42;;;;;;;3.83;2.10;;;;;;;-0.64;100.00;100439.48;3902631;74;385622;-79
2021/03/03 06:37:05;;;;;;;2.87;2.10;;;;;;;-0.52;100.00;100429.05;3877456;75;396119;-78
2021/03/03 06:42:26;;;;;;;2.30;2.20;;;;;;;-0.34;100.00;100441.73;3902242;75;396353;-78
2021/03/03 06:47:48;;;;;;;6.70;1.60;;;;;;;-0.36;100.00;100437.17;3877627;75;394018;-78
2021/03/03 06:53:09;;;;;;;2.13;1.60;;;;;;;-0.17;100.00;100443.87;3901989;75;396172;-78
2021/03/03 06:58:31;;;;;;;3.53;2.10;;;;;;;-0.02;100.00;100451.98;3877219;74;396074;-78
2021/03/03 07:03:53;;;;;;;10.50;3.00;;;;;;;-0.02;100.00;100451.98;3902470;75;396075;-78
2021/03/03 07:09:14;;;;;;;2.63;1.27;;;;;;;0.20;100.00;100452.69;3877597;75;395033;-78
2021/03/03 07:14:36;;;;;;;3.30;2.03;;;;;;;0.21;100.00;100452.94;3902785;75;396078;-78
2021/03/03 07:20:02;;;;;;;1.20;1.10;;;;;;;0.22;100.00;100456.69;3878067;75;396385;-77
2021/03/03 07:25:24;;;;;;;5.43;2.10;;;;;;;0.41;100.00;100456.61;3876911;75;391970;-78
2021/03/03 07:30:45;;;;;;;2.37;2.27;;;;;;;0.26;100.00;100473.13;3903236;75;387826;-78
2021/03/03 07:36:08;;;;;;;1.77;1.67;;;;;;;0.31;100.00;100465.73;3877573;75;396401;-78
2021/03/03 07:41:30;;;;;;;1.47;1.30;;;;;;;0.51;100.00;100474.02;3902796;75;396090;-78
2021/03/03 07:46:52;;;;;;;2.23;1.13;;;;;;;0.73;100.00;100476.29;3878108;75;394059;-78
2021/03/03 07:52:15;;;;;;;5.90;3.90;;;;;;;0.87;100.00;100476.55;3854609;75;391845;-78
2021/03/03 07:57:38;;;;;;;2.13;1.93;;;;;;;1.11;100.00;100480.36;3907666;74;396078;-79
2021/03/03 08:02:59;;;;;;;7.03;2.87;;;;;;;1.51;100.00;100478.92;3889695;75;390859;-78
2021/03/03 08:08:33;;;;;;;2.20;1.97;;;;;;;1.81;100.00;100471.41;3887889;75;385693;-79
2021/03/03 08:13:51;;;;;;;2.50;2.30;;;;;;;2.12;100.00;100475.80;3889161;74;396369;-79
2021/03/03 08:19:12;;;;;;;2.07;1.30;;;;;;;2.36;100.00;100482.47;3889597;75;395237;-79
2021/03/03 08:24:39;;;;;;;5.10;2.80;;;;;;;2.66;100.00;100474.87;3887155;75;396161;-78
2021/03/03 08:30:18;;;;;;;2.50;2.30;;;;;;;2.80;100.00;100475.56;3888301;75;396117;-79
2021/03/03 08:35:40;;;;;;;1.90;1.80;;;;;;;3.02;100.00;100480.11;3889813;74;394215;-79
2021/03/03 08:41:19;;;;;;;7.30;2.40;;;;;;;3.18;100.00;100469.81;3890453;74;396085;-79
2021/03/03 08:46:44;;;;;;;4.23;1.83;;;;;;;3.34;100.00;100466.34;3889548;75;396421;-80
2021/03/03 08:52:12;;;;;;;5.30;2.50;;;;;;;3.51;100.00;100465.00;3889049;75;396334;-80
2021/03/03 08:57:37;;;;;;;3.47;3.27;;;;;;;3.79;100.00;100463.53;3889751;74;396138;-80
2021/03/03 09:02:59;;;;;;;3.80;2.47;;;;;;;4.03;100.00;100453.75;3889263;74;396182;-80
2021/03/03 09:08:22;;;;;;;3.17;2.93;;;;;;;4.22;100.00;100455.53;3889910;74;396137;-80
2021/03/03 09:13:43;;;;;;;6.53;3.57;;;;;;;4.53;100.00;100451.98;3868883;75;392973;-80
2021/03/03 09:19:11;;;;;;;13.43;4.00;;;;;;;4.71;100.00;100454.88;3889855;74;396125;-79
2021/03/03 09:24:32;;;;;;;2.30;1.87;;;;;;;4.90;100.00;100449.25;3890042;74;396286;-80
2021/03/03 09:29:53;;;;;;;9.90;2.30;;;;;;;5.24;100.00;100452.36;3889673;75;393954;-79
2021/03/03 09:35:18;;;;;;;12.30;3.83;;;;;;;5.48;100.00;100453.30;3889248;74;400205;-79
2021/03/03 09:40:39;;;;;;;10.57;4.40;;;;;;;5.81;99.99;100455.00;3888532;75;400277;-78
2021/03/03 09:46:00;;;;;;;3.47;2.50;;;;;;;5.97;96.50;100448.33;3888622;75;397339;-79
2021/03/03 09:51:22;;;;;;;8.43;4.83;;;;;;;6.68;94.22;100453.96;3890106;74;394255;-78
2021/03/03 09:56:42;;;;;;;7.77;4.23;;;;;;;7.66;88.91;100449.66;3890429;74;396073;-79
2021/03/03 10:02:05;;;;;;;10.00;4.93;;;;;;;7.92;83.43;100449.45;3890651;74;397088;-79
2021/03/03 10:07:28;;;;;;;6.00;4.10;;;;;;;8.50;79.01;100434.20;3889556;74;397008;-79
2021/03/03 10:12:50;;;;;;;3.63;2.90;;;;;;;8.88;78.07;100437.92;3889405;75;397062;-79
2021/03/03 10:18:12;;;;;;;5.27;4.70;;;;;;;9.10;76.54;100456.48;3889782;74;398107;-79
2021/03/03 10:23:35;;;;;;;7.20;5.60;;;;;;;9.27;77.12;100450.62;3890003;75;385615;-79
2021/03/03 10:28:56;;;;;;;14.70;6.03;;;;;;;9.79;67.80;100447.66;3889500;74;393937;-79
2021/03/03 10:34:17;;;;;;;9.77;4.30;;;;;;;10.29;63.69;100438.70;3903587;74;393952;-80
2021/03/03 10:39:38;;;;;;;10.77;5.27;;;;;;;10.38;64.48;100436.49;3903431;75;394934;-80
2021/03/03 10:44:59;;;;;;;7.40;4.93;;;;;;;10.69;63.60;100431.56;3902026;75;396996;-80
2021/03/03 10:50:21;;;;;;;13.83;5.60;;;;;;;11.37;62.35;100426.16;3903064;75;395198;-80
2021/03/03 10:55:43;;;;;;;5.50;4.20;;;;;;;11.98;60.27;100421.10;3902650;75;396082;-80
2021/03/03 11:01:06;;;;;;;10.27;5.53;;;;;;;11.61;59.95;100421.60;3903016;75;394954;-80
2021/03/03 11:06:30;;;;;;;11.43;5.57;;;;;;;11.37;60.51;100424.78;3902648;75;400244;-80
2021/03/03 11:11:57;;;;;;;9.27;6.27;;;;;;;10.43;62.38;100421.08;3903264;75;389767;-81
2021/03/03 11:17:18;;;;;;;17.90;6.67;;;;;;;10.07;65.90;100416.06;3902178;75;396267;-80
2021/03/03 11:22:39;;;;;;;16.90;6.17;;;;;;;9.88;67.16;100405.08;3902108;75;401298;-80
2021/03/03 11:28:00;;;;;;;9.87;5.90;;;;;;;9.98;66.22;100399.59;3903022;75;394966;-79
2021/03/03 11:33:22;;;;;;;12.00;6.63;;;;;;;10.01;67.12;100394.16;3902649;75;400242;-79
2021/03/03 11:38:43;;;;;;;9.17;5.70;;;;;;;10.20;66.50;100388.64;3903021;75;394161;-80
2021/03/03 11:44:06;;;;;;;8.87;6.17;;;;;;;10.25;65.89;100379.30;3903173;75;391084;-80
2021/03/03 11:49:27;;;;;;;7.67;6.37;;;;;;;10.38;65.81;100369.09;3903193;75;396022;-80
2021/03/03 11:54:48;;;;;;;12.50;6.73;;;;;;;10.39;65.86;100361.06;3902892;75;393936;-80
2021/03/03 12:00:12;;;;;;;11.70;6.70;;;;;;;10.71;64.68;100358.25;3903030;75;395224;-80
2021/03/03 12:05:33;;;;;;;8.33;5.03;;;;;;;11.32;63.30;100357.61;3902213;75;393906;-79
2021/03/03 12:10:55;;;;;;;11.70;5.40;;;;;;;11.53;62.53;100350.23;3903012;75;395254;-76
2021/03/03 12:16:17;;;;;;;16.23;8.13;;;;;;;12.06;60.48;100333.91;3902513;75;394932;-76
2021/03/03 12:21:38;;;;;;;15.90;8.03;;;;;;;12.60;58.84;100324.93;3901351;75;398350;-77
2021/03/03 12:26:59;;;;;;;17.83;7.00;;;;;;;13.39;56.59;100312.84;3902825;75;391064;-76
2021/03/03 12:32:20;;;;;;;22.97;8.47;;;;;;;14.32;53.78;100306.00;3901493;75;394979;-76
2021/03/03 12:37:41;;;;;;;17.40;7.37;;;;;;;15.03;52.77;100306.91;3902739;75;391947;-76
2021/03/03 12:43:02;;;;;;;14.50;7.20;;;;;;;15.25;49.90;100294.83;3901207;75;400478;-76
2021/03/03 12:48:23;;;;;;;14.60;7.50;;;;;;;14.91;52.90;100292.11;3902410;75;400257;-76
2021/03/03 12:53:45;;;;;;;12.70;6.60;;;;;;;15.23;52.43;100272.80;3903113;75;391892;-76
2021/03/03 12:59:08;;;;;;;13.40;8.47;;;;;;;15.78;50.14;100269.01;3897306;75;393996;-79
2021/03/03 13:04:29;;;;;;;15.50;9.07;;;;;;;16.23;49.49;100259.59;3901574;75;400528;-79
2021/03/03 13:09:50;;;;;;;10.87;7.33;;;;;;;15.52;49.16;100259.83;3877515;75;393941;-80
2021/03/03 13:15:11;;;;;;;17.50;9.00;;;;;;;16.11;50.15;100251.74;3901903;75;396070;-79
2021/03/03 13:20:32;;;;;;;13.10;7.50;;;;;;;16.71;47.34;100243.72;3877429;75;394070;-79
2021/03/03 13:25:54;;;;;;;24.30;9.50;;;;;;;16.86;46.74;100235.61;3901819;74;400478;-79
2021/03/03 13:31:16;;;;;;;18.40;7.73;;;;;;;16.88;47.13;100231.02;3876492;75;400248;-79
2021/03/03 13:36:37;;;;;;;12.83;7.97;;;;;;;16.53;46.90;100225.03;3902120;74;400486;-79
2021/03/03 13:41:59;;;;;;;19.80;8.20;;;;;;;17.17;46.86;100216.96;3876636;75;400208;-79
2021/03/03 13:47:21;;;;;;;19.63;9.80;;;;;;;16.99;46.36;100211.62;3901309;74;400237;-79
2021/03/03 13:52:43;;;;;;;16.17;8.80;;;;;;;17.09;45.40;100198.20;3876802;75;398157;-79
2021/03/03 13:58:04;;;;;;;13.23;7.60;;;;;;;17.13;46.27;100193.98;3901986;74;394252;-79
2021/03/03 14:03:25;;;;;;;17.97;9.63;;;;;;;17.71;44.70;100188.83;3876382;75;400528;-79
2021/03/03 14:08:47;;;;;;;21.97;11.37;;;;;;;17.77;45.32;100178.20;3900984;75;404447;-79
2021/03/03 14:14:08;;;;;;;17.50;9.13;;;;;;;17.46;45.29;100163.36;3874192;75;400509;-79
2021/03/03 14:19:29;;;;;;;21.60;10.30;;;;;;;16.96;45.42;100163.02;3901446;75;400248;-79
2021/03/03 14:24:52;;;;;;;17.47;8.67;;;;;;;16.58;47.98;100153.14;3873831;75;400859;-79
2021/03/03 14:30:14;;;;;;;23.93;9.37;;;;;;;16.35;49.14;100143.27;3901552;75;400235;-79
2021/03/03 14:35:34;;;;;;;22.47;9.67;;;;;;;16.40;48.13;100144.20;3869333;75;400269;-79
2021/03/03 14:41:00;;;;;;;20.67;9.67;;;;;;;15.72;50.22;100144.98;3894237;75;400529;-79
2021/03/03 14:46:22;;;;;;;18.33;9.43;;;;;;;15.21;51.30;100133.20;3894139;75;400247;-78
2021/03/03 14:51:43;;;;;;;16.67;9.53;;;;;;;15.16;52.16;100136.99;3893744;75;400445;-78
2021/03/03 14:57:05;;;;;;;18.50;7.67;;;;;;;14.98;52.68;100136.31;3894231;75;400654;-78
2021/03/03 15:02:26;;;;;;;21.30;10.83;;;;;;;14.47;54.25;100126.41;3886606;75;404636;-79
2021/03/03 15:07:48;;;;;;;18.37;9.63;;;;;;;14.27;55.36;100125.87;3882840;75;400299;-78
2021/03/03 15:13:09;;;;;;;17.03;8.33;;;;;;;13.52;58.15;100131.02;3882717;75;399344;-79
2021/03/03 15:18:30;;;;;;;15.30;7.90;;;;;;;13.18;59.93;100115.95;3882849;75;401267;-79
2021/03/03 15:23:51;;;;;;;25.27;10.10;;;;;;;13.04;60.37;100110.98;3883080;75;400551;-79
2021/03/03 15:29:12;;;;;;;18.13;8.93;;;;;;;13.20;60.79;100103.12;3882880;75;400281;-79
2021/03/03 15:34:33;;;;;;;18.63;9.63;;;;;;;13.12;60.27;100098.19;3878507;75;397045;-79
2021/03/03 15:39:55;;;;;;;25.50;9.13;;;;;;;12.94;61.30;100084.11;3882079;75;400228;-78
2021/03/03 15:45:19;;;;;;;27.07;11.47;;;;;;;13.13;61.03;100081.78;3883726;75;396081;-79
2021/03/03 15:50:40;;;;;;;18.40;8.80;;;;;;;13.34;60.87;100069.97;3883083;75;401238;-79
2021/03/03 15:56:01;;;;;;;22.27;10.43;;;;;;;13.22;60.86;100060.69;3883071;75;396006;-79
2021/03/03 16:01:22;;;;;;;16.43;9.27;;;;;;;13.10;61.48;100062.44;3886684;75;400550;-79
2021/03/03 16:06:43;;;;;;;18.47;11.70;;;;;;;12.67;63.24;100055.22;3894261;75;403327;-79
2021/03/03 16:12:05;;;;;;;20.67;9.70;;;;;;;12.65;63.48;100048.48;3894481;75;401251;-79
2021/03/03 16:17:27;;;;;;;15.80;9.87;;;;;;;12.48;63.19;100051.39;3894655;75;401248;-79
2021/03/03 16:22:48;;;;;;;17.83;8.90;;;;;;;12.05;65.05;100045.47;3894550;75;401485;-78
2021/03/03 16:28:09;;;;;;;16.57;9.47;;;;;;;11.83;66.02;100036.09;3894532;75;401246;-79
2021/03/03 16:33:31;;;;;;;20.03;11.00;;;;;;;11.56;68.02;100038.05;3894290;75;401284;-78
2021/03/03 16:38:53;;;;;;;14.70;6.47;;;;;;;11.06;69.24;100041.55;3894952;75;394963;-79
2021/03/03 16:44:14;;;;;;;22.17;9.30;;;;;;;10.91;69.25;100046.69;3894450;75;401165;-78
2021/03/03 16:49:36;;;;;;;18.70;10.13;;;;;;;10.60;70.63;100039.48;3894282;75;400500;-78
2021/03/03 16:54:57;;;;;;;17.40;8.97;;;;;;;10.33;72.26;100034.66;3894200;75;400300;-78
2021/03/03 17:00:19;;;;;;;18.50;8.00;;;;;;;10.09;73.71;100034.92;3894372;75;401244;-78
2021/03/03 17:05:42;;;;;;;22.47;10.60;;;;;;;9.77;77.63;100036.41;3889256;75;404379;-78
2021/03/03 17:11:03;;;;;;;16.37;8.87;;;;;;;9.38;78.76;100036.97;3901591;75;401205;-78
2021/03/03 17:16:24;;;;;;;22.47;8.63;;;;;;;9.13;77.76;100037.92;3876985;75;397083;-78
2021/03/03 17:21:45;;;;;;;13.83;8.10;;;;;;;8.88;81.50;100032.58;3902152;74;400249;-78
2021/03/03 17:27:08;;;;;;;14.40;10.13;;;;;;;8.59;82.30;100035.75;3900794;74;401166;-78
2021/03/03 17:32:29;;;;;;;22.70;11.70;;;;;;;8.45;80.25;100040.97;3873778;75;404368;-78
2021/03/03 17:37:50;;;;;;;24.27;12.17;;;;;;;8.37;84.44;100035.91;3899069;75;402287;-78
2021/03/03 17:43:11;;;;;;;18.80;9.07;;;;;;;8.15;85.13;100036.64;3874401;75;402198;-78
2021/03/03 17:48:33;;;;;;;13.27;8.10;;;;;;;8.08;84.33;100046.61;3902065;75;401206;-78
2021/03/03 17:53:54;;;;;;;12.73;8.83;;;;;;;7.99;85.34;100035.88;3876795;75;390835;-78
2021/03/03 17:59:16;;;;;;;17.13;10.63;;;;;;;8.00;89.13;100031.98;3901352;74;405657;-78
2021/03/03 18:04:37;;;;;;;14.20;8.80;;;;;;;7.89;89.37;100031.55;3874406;75;394992;-78
2021/03/03 18:09:58;;;;;;;11.27;8.87;;;;;;;7.88;90.19;100027.22;3902175;75;394956;-78
2021/03/03 18:15:20;;;;;;;22.57;8.40;;;;;;;7.78;91.72;100030.51;3876731;75;402290;-78
2021/03/03 18:20:42;;;;;;;15.50;8.10;;;;;;;7.75;93.03;100020.84;3901959;75;401212;-78
2021/03/03 18:26:04;;;;;;;8.70;5.67;;;;;;;7.78;90.96;100023.66;3877687;75;396062;-78
2021/03/03 18:31:25;;;;;;;23.03;9.03;;;;;;;7.85;89.60;100016.18;3901983;75;396034;-78
2021/03/03 18:36:47;;;;;;;14.30;6.67;;;;;;;7.69;92.90;100012.70;3877425;75;398173;-78
2021/03/03 18:42:09;;;;;;;17.50;8.67;;;;;;;7.69;91.65;100008.59;3902566;75;383571;-77
2021/03/03 18:47:30;;;;;;;13.30;7.90;;;;;;;7.76;89.65;100006.78;3877134;75;401210;-77
2021/03/03 18:52:51;;;;;;;23.53;9.10;;;;;;;7.74;89.34;99998.71;3901985;75;394969;-77
2021/03/03 18:58:13;;;;;;;16.20;9.77;;;;;;;7.70;90.96;100002.74;3900518;75;397064;-78
2021/03/03 19:03:36;;;;;;;25.27;8.90;;;;;;;7.63;91.03;99993.59;3905676;74;391034;-77
2021/03/03 19:08:57;;;;;;;15.60;9.10;;;;;;;7.60;91.59;99987.45;3948740;74;394926;-78
2021/03/03 19:14:18;;;;;;;17.03;7.47;;;;;;;7.70;95.94;100000.00;3948848;74;391043;-78
2021/03/03 19:19:39;;;;;;;18.67;10.90;;;;;;;7.55;99.46;99994.00;3948232;74;401208;-78
2021/03/03 19:25:01;;;;;;;25.73;9.43;;;;;;;7.39;100.00;99980.92;3948938;74;400192;-78
2021/03/03 19:30:23;;;;;;;14.43;9.20;;;;;;;7.40;99.88;99970.20;3948759;74;396114;-78
2021/03/03 19:35:44;;;;;;;15.07;7.13;;;;;;;7.44;100.00;99968.31;3948942;74;393986;-77
2021/03/03 19:41:07;;;;;;;19.00;8.70;;;;;;;7.52;100.00;99976.13;3947813;74;400246;-78
2021/03/03 19:46:29;;;;;;;14.40;8.97;;;;;;;7.36;100.00;99966.58;3948496;74;402462;-78
2021/03/03 19:51:50;;;;;;;12.17;7.50;;;;;;;7.32;100.00;99962.98;3949269;74;394282;-78
2021/03/03 19:57:12;;;;;;;41.73;7.87;;;;;;;7.25;100.00;99958.71;3948760;74;398121;-77
2021/03/03 20:02:33;;;;;;;21.90;8.20;;;;;;;7.33;100.00;99964.56;3943535;74;399164;-78
2021/03/03 20:07:54;;;;;;;15.43;8.97;;;;;;;7.05;100.00;99960.94;3902195;74;394983;-78
2021/03/03 20:13:16;;;;;;;12.27;8.37;;;;;;;6.90;100.00;99958.45;3877276;75;397056;-78
2021/03/03 20:18:38;;;;;;;44.67;10.20;;;;;;;6.85;100.00;99950.49;3901799;75;401238;-77
2021/03/03 20:23:59;;;;;;;23.10;8.37;;;;;;;6.85;100.00;99946.98;3874805;75;400573;-78
2021/03/03 20:29:21;;;;;;;10.03;9.03;;;;;;;6.82;100.00;99942.20;3902757;75;390801;-78
2021/03/03 20:34:43;;;;;;;9.90;7.93;;;;;;;6.77;100.00;99945.22;3877585;75;396176;-78
2021/03/03 20:40:05;;;;;;;15.80;9.37;;;;;;;6.60;100.00;99946.34;3902192;75;390995;-78
2021/03/03 20:45:27;;;;;;;15.03;7.40;;;;;;;6.57;100.00;99948.99;3876915;75;400139;-78
2021/03/03 20:50:48;;;;;;;18.93;8.87;;;;;;;6.54;100.00;99933.31;3901655;75;401215;-78
2021/03/03 20:56:09;;;;;;;20.40;9.47;;;;;;;6.51;100.00;99943.57;3876946;75;393171;-77
2021/03/03 21:01:31;;;;;;;16.60;7.37;;;;;;;6.31;100.00;99948.69;3902423;75;395005;-77
2021/03/03 21:06:53;;;;;;;22.37;9.30;;;;;;;6.19;100.00;99943.86;3876789;75;401218;-78
2021/03/03 21:12:14;;;;;;;10.70;6.73;;;;;;;6.04;100.00;99939.97;3902712;75;393991;-78
2021/03/03 21:17:36;;;;;;;17.30;7.97;;;;;;;5.98;100.00;99933.15;3876811;75;400487;-78
2021/03/03 21:22:57;;;;;;;13.23;9.33;;;;;;;5.91;100.00;99926.72;3901773;74;401491;-78
2021/03/03 21:28:19;;;;;;;22.83;9.67;;;;;;;5.81;100.00;99921.19;3876836;75;400205;-78
2021/03/03 21:33:40;;;;;;;13.63;8.07;;;;;;;5.78;100.00;99921.88;3902384;75;394247;-78
2021/03/03 21:39:01;;;;;;;38.47;10.80;;;;;;;5.70;100.00;99917.33;3876953;75;398161;-78
2021/03/03 21:44:22;;;;;;;19.40;7.13;;;;;;;5.60;100.00;99908.84;3899302;75;400204;-78
2021/03/03 21:49:44;;;;;;;16.53;7.30;;;;;;;5.56;100.00;99900.55;3876841;75;395237;-78
2021/03/03 21:55:06;;;;;;;13.13;7.23;;;;;;;5.46;100.00;99902.17;3902043;74;393951;-78
2021/03/03 22:00:28;;;;;;;20.33;8.07;;;;;;;5.44;100.00;99901.71;3900713;75;400249;-78
2021/03/03 22:05:49;;;;;;;12.23;8.23;;;;;;;5.39;100.00;99885.59;3877066;75;400498;-78
2021/03/03 22:11:10;;;;;;;14.90;10.00;;;;;;;5.35;100.00;99883.32;3901728;75;393962;-78
2021/03/03 22:16:32;;;;;;;19.60;8.93;;;;;;;5.42;100.00;99881.60;3874365;76;400234;-77
2021/03/03 22:21:54;;;;;;;22.00;7.83;;;;;;;5.20;100.00;99884.04;3901817;74;393983;-78
2021/03/03 22:27:15;;;;;;;11.63;8.40;;;;;;;5.07;100.00;99880.55;3877300;75;394027;-78
2021/03/03 22:32:36;;;;;;;15.77;8.57;;;;;;;5.03;100.00;99870.66;3901731;75;400256;-78
2021/03/03 22:37:58;;;;;;;10.70;7.20;;;;;;;5.00;100.00;99865.92;3877407;75;391955;-78
2021/03/03 22:43:19;;;;;;;17.50;8.37;;;;;;;4.93;100.00;99860.22;3901801;75;392881;-77
2021/03/03 22:48:40;;;;;;;12.57;7.30;;;;;;;4.87;100.00;99856.16;3876672;75;400502;-78
2021/03/03 22:54:03;;;;;;;6.63;5.90;;;;;;;4.82;100.00;99849.58;3902941;75;389821;-78
2021/03/03 22:59:24;;;;;;;17.63;6.90;;;;;;;4.74;100.00;99838.23;3876324;75;400544;-78
2021/03/03 23:04:45;;;;;;;14.63;6.80;;;;;;;4.67;100.00;99832.57;3901009;75;392149;-77
2021/03/03 23:10:13;;;;;;;13.87;6.03;;;;;;;4.65;100.00;99828.58;3894972;74;400269;-77
2021/03/03 23:15:35;;;;;;;26.93;7.80;;;;;;;4.47;100.00;99819.08;3894242;75;396133;-78
2021/03/03 23:20:56;;;;;;;12.60;7.13;;;;;;;4.40;100.00;99812.05;3895232;75;396405;-78
2021/03/03 23:26:18;;;;;;;6.60;4.20;;;;;;;4.35;100.00;99807.62;3894951;75;394070;-78
2021/03/03 23:31:39;;;;;;;18.07;7.30;;;;;;;4.28;100.00;99807.95;3894599;75;400249;-78
2021/03/03 23:37:00;;;;;;;13.17;7.30;;;;;;;4.19;100.00;99805.34;3894835;75;393947;-78
2021/03/03 23:42:21;;;;;;;13.53;6.40;;;;;;;4.15;100.00;99798.98;3894856;75;396034;-77
2021/03/03 23:47:42;;;;;;;24.97;8.20;;;;;;;4.11;100.00;99791.28;3894891;75;400240;-77
2021/03/03 23:53:05;;;;;;;31.83;7.27;;;;;;;4.08;100.00;99792.50;3895432;74;394016;-78
2021/03/03 23:58:26;;;;;;;11.10;6.07;;;;;;;4.10;100.00;99780.70;3895467;75;396144;-78
